createdAt,value
2023-03-17T00:00:44.856Z,94.7
2023-03-17T00:03:10.881Z,94.8
2023-03-17T00:05:36.934Z,94.9
2023-03-17T00:08:02.050Z,95
2023-03-17T00:10:28.120Z,95.1
2023-03-17T00:12:54.224Z,95.2
2023-03-17T00:15:20.332Z,95.5
2023-03-17T00:17:46.445Z,95.6
2023-03-17T00:20:12.531Z,95.7
2023-03-17T00:22:38.614Z,95.8
2023-03-17T00:25:03.820Z,96
2023-03-17T00:27:28.910Z,96.1
2023-03-17T00:29:53.992Z,96.3
2023-03-17T00:32:19.099Z,96.3
2023-03-17T00:34:45.186Z,96.4
2023-03-17T00:37:11.278Z,96.2
2023-03-17T00:39:36.516Z,96.3
2023-03-17T00:42:02.555Z,96.4
2023-03-17T00:44:28.588Z,96.4
2023-03-17T00:46:54.689Z,96.5
2023-03-17T00:49:20.902Z,96.5
2023-03-17T00:51:46.981Z,96.7
2023-03-17T00:54:13.011Z,96.7
2023-03-17T00:56:39.064Z,96.9
2023-03-17T00:59:05.165Z,96.9
2023-03-17T01:01:31.284Z,97
2023-03-17T01:03:57.356Z,97
2023-03-17T01:06:23.453Z,97
2023-03-17T01:08:49.544Z,97
2023-03-17T01:11:14.670Z,97
2023-03-17T01:13:40.823Z,97
2023-03-17T01:16:06.876Z,97.2
2023-03-17T01:18:32.943Z,97.2
2023-03-17T01:20:58.124Z,97.2
2023-03-17T01:23:23.200Z,97.2
2023-03-17T01:25:48.304Z,97.2
2023-03-17T01:28:13.411Z,97.2
2023-03-17T01:30:39.766Z,96.9
2023-03-17T01:33:05.643Z,96.6
2023-03-17T01:35:31.700Z,96
2023-03-17T01:37:57.802Z,95.8
2023-03-17T01:40:23.982Z,95.6
2023-03-17T01:42:50.000Z,95.4
2023-03-17T01:45:16.086Z,95.3
2023-03-17T01:47:42.186Z,95.3
2023-03-17T01:50:08.355Z,95.2
2023-03-17T01:52:34.536Z,94.8
2023-03-17T01:55:00.488Z,95
2023-03-17T01:57:26.623Z,95
2023-03-17T01:59:51.707Z,95
2023-03-17T02:02:17.791Z,95.4
2023-03-17T02:04:43.884Z,95.6
2023-03-17T02:07:09.956Z,95.8
2023-03-17T02:09:36.068Z,96.1
2023-03-17T02:12:02.160Z,96.2
2023-03-17T02:14:28.255Z,96.3
2023-03-17T02:16:53.388Z,96.5
2023-03-17T02:19:18.492Z,96.7
2023-03-17T02:21:44.587Z,97
2023-03-17T02:24:10.668Z,97
2023-03-17T02:26:35.807Z,97
2023-03-17T02:29:00.915Z,96.7
2023-03-17T02:31:27.022Z,96.3
2023-03-17T02:33:53.113Z,95.8
2023-03-17T02:36:19.228Z,95.7
2023-03-17T02:38:45.368Z,95.7
2023-03-17T02:41:11.392Z,95.8
2023-03-17T02:43:37.502Z,95.5
2023-03-17T02:46:03.586Z,95.4
2023-03-17T02:48:29.688Z,95.2
2023-03-17T02:50:55.766Z,95.1
2023-03-17T02:53:21.863Z,94.8
2023-03-17T02:55:47.966Z,94.8
2023-03-17T02:58:14.071Z,94.9
2023-03-17T03:00:39.250Z,94.9
2023-03-17T03:03:05.280Z,95.1
2023-03-17T03:05:31.384Z,95.3
2023-03-17T03:07:57.466Z,95.8
2023-03-17T03:10:23.695Z,95.7
2023-03-17T03:15:15.762Z,95.5
2023-03-17T03:17:41.863Z,95.8
2023-03-17T03:20:07.945Z,96
2023-03-17T03:22:34.110Z,96.2
2023-03-17T03:25:00.159Z,96.3
2023-03-17T03:27:26.240Z,95.5
2023-03-17T03:29:52.317Z,95.5
2023-03-17T03:32:18.419Z,95.3
2023-03-17T03:34:44.556Z,95.3
2023-03-17T03:37:10.624Z,95.1
2023-03-17T03:39:36.712Z,94.9
2023-03-17T03:42:02.980Z,95
2023-03-17T03:44:28.905Z,95.5
2023-03-17T03:46:54.989Z,95.7
2023-03-17T03:49:21.092Z,95.8
2023-03-17T03:51:47.220Z,95.6
2023-03-17T03:54:13.283Z,95.6
2023-03-17T03:56:38.426Z,95.7
2023-03-17T03:59:03.528Z,95.9
2023-03-17T04:01:29.719Z,95.8
2023-03-17T04:03:55.718Z,95.9
2023-03-17T04:06:21.795Z,96.1
2023-03-17T04:08:47.931Z,96.2
2023-03-17T04:11:14.012Z,96.5
2023-03-17T04:13:40.137Z,96.7
2023-03-17T04:16:06.186Z,96.7
2023-03-17T04:18:32.364Z,97
2023-03-17T04:20:58.393Z,97
2023-03-17T04:23:24.463Z,97
2023-03-17T04:25:50.573Z,97.2
2023-03-17T04:30:42.808Z,97.5
2023-03-17T04:33:07.859Z,97.7
2023-03-17T04:35:33.957Z,97.8
2023-03-17T04:38:00.080Z,97.7
2023-03-17T04:40:26.148Z,97.8
2023-03-17T04:42:52.262Z,98
2023-03-17T04:45:18.347Z,98.2
2023-03-17T04:47:44.448Z,98.4
2023-03-17T04:50:09.647Z,98.5
2023-03-17T04:52:34.765Z,98.3
2023-03-17T04:55:00.785Z,98.2
2023-03-17T04:57:26.914Z,98.1
2023-03-17T04:59:52.980Z,98.3
2023-03-17T05:02:19.159Z,98.4
2023-03-17T05:04:45.171Z,98.4
2023-03-17T05:07:11.276Z,98.5
2023-03-17T05:09:37.367Z,98.9
2023-03-17T05:12:03.467Z,99
2023-03-17T05:14:29.551Z,99.2
2023-03-17T05:16:55.651Z,99.3
2023-03-17T05:19:21.822Z,99.5
2023-03-17T05:21:47.959Z,99.7
2023-03-17T05:24:12.942Z,99.8
2023-03-17T05:26:39.044Z,99.7
2023-03-17T05:29:05.206Z,99.8
2023-03-17T05:31:31.237Z,99.8
2023-03-17T05:33:57.333Z,99.9
2023-03-17T05:36:23.447Z,100
2023-03-17T05:38:49.530Z,100
2023-03-17T05:41:14.745Z,100
2023-03-17T05:43:39.776Z,100
2023-03-17T05:46:04.889Z,100
2023-03-17T05:48:30.013Z,100
2023-03-17T05:50:56.109Z,99.9
2023-03-17T05:53:22.200Z,99.9
2023-03-17T05:55:48.302Z,99.8
2023-03-17T05:58:14.382Z,99.7
2023-03-17T06:00:40.590Z,99.8
2023-03-17T06:03:06.596Z,99.6
2023-03-17T06:05:32.734Z,99.5
2023-03-17T06:07:58.770Z,99.3
2023-03-17T06:10:24.912Z,99.2
2023-03-17T06:12:50.967Z,99.2
2023-03-17T06:15:17.068Z,99.3
2023-03-17T06:17:43.184Z,99.3
2023-03-17T06:20:08.324Z,99.3
2023-03-17T06:22:34.383Z,99
2023-03-17T06:25:00.466Z,98.8
2023-03-17T06:27:26.589Z,98.7
2023-03-17T06:29:52.672Z,98.7
2023-03-17T06:32:18.768Z,98.7
2023-03-17T06:34:44.955Z,98.7
2023-03-17T06:37:09.975Z,98.7
2023-03-17T06:39:35.099Z,98.6
2023-03-17T06:42:01.195Z,98.1
2023-03-17T06:44:27.313Z,97.9
2023-03-17T06:46:53.384Z,97.8
2023-03-17T06:49:19.480Z,97.6
2023-03-17T06:51:45.579Z,97.6
2023-03-17T06:54:11.702Z,97.9
2023-03-17T06:56:37.850Z,97.9
2023-03-17T06:59:03.860Z,97.8
2023-03-17T07:01:29.969Z,97.3
2023-03-17T07:03:56.130Z,96.3
2023-03-17T07:06:22.155Z,95.4
2023-03-17T07:08:48.254Z,94
2023-03-17T07:11:13.441Z,93.2
2023-03-17T07:13:39.469Z,92.7
2023-03-17T07:16:05.562Z,92.5
2023-03-17T07:18:31.686Z,91.9
2023-03-17T07:20:57.751Z,91.3
2023-03-17T07:23:23.844Z,91
2023-03-17T07:25:49.943Z,90.5
2023-03-17T07:28:15.102Z,89.9
2023-03-17T07:30:40.181Z,89.8
2023-03-17T07:33:06.324Z,89.4
2023-03-17T07:35:32.399Z,88.8
2023-03-17T07:37:58.463Z,87.6
2023-03-17T07:40:24.570Z,86.9
2023-03-17T07:42:51.337Z,86
2023-03-17T07:45:17.338Z,84.8
2023-03-17T07:47:42.927Z,84.7
2023-03-17T07:50:08.952Z,84.1
2023-03-17T07:52:35.030Z,83.7
2023-03-17T07:55:01.127Z,83
2023-03-17T07:57:27.229Z,82.8
2023-03-17T07:59:53.389Z,82.8
2023-03-17T08:02:18.462Z,83.3
2023-03-17T08:04:44.602Z,83.1
2023-03-17T08:07:10.628Z,83
2023-03-17T08:09:36.720Z,83
2023-03-17T08:12:02.866Z,82.8
2023-03-17T08:14:29.203Z,82.8
2023-03-17T08:16:55.087Z,82.6
2023-03-17T08:19:21.111Z,82.3
2023-03-17T08:21:47.257Z,82.2
2023-03-17T08:24:13.288Z,81.7
2023-03-17T08:26:39.551Z,81.3
2023-03-17T08:29:05.638Z,80.1
2023-03-17T08:31:31.625Z,78.3
2023-03-17T08:33:56.812Z,76.4
2023-03-17T08:36:25.496Z,76.1
2023-03-17T08:38:48.901Z,75.2
2023-03-17T08:41:15.056Z,73.8
2023-03-17T08:43:41.144Z,73.2
2023-03-17T08:46:07.172Z,74
2023-03-17T08:48:32.327Z,72.3
2023-03-17T08:50:58.405Z,71.2
2023-03-17T08:53:24.502Z,71.9
2023-03-17T08:56:09.613Z,72.1
2023-03-17T08:58:16.701Z,71
2023-03-17T09:00:42.816Z,69.9
2023-03-17T09:03:09.016Z,69.2
2023-03-17T09:05:35.011Z,69
2023-03-17T09:08:01.146Z,68.5
2023-03-17T09:10:27.187Z,67.8
2023-03-17T09:12:53.341Z,69.4
2023-03-17T09:15:19.461Z,68.9
2023-03-17T09:17:45.484Z,68.8
2023-03-17T09:20:11.533Z,68.6
2023-03-17T09:22:36.652Z,68.1
2023-03-17T09:25:02.757Z,68
2023-03-17T09:27:29.571Z,68.3
2023-03-17T09:32:21.056Z,67.7
2023-03-17T09:34:56.747Z,66.4
2023-03-17T09:37:13.247Z,65.9
2023-03-17T09:39:39.427Z,65
2023-03-17T09:42:05.660Z,64.1
2023-03-17T09:44:31.534Z,64.8
2023-03-17T09:46:57.625Z,62.5
2023-03-17T09:49:23.705Z,61.9
2023-03-17T09:51:48.886Z,62.8
2023-03-17T09:54:14.919Z,63.3
2023-03-17T09:56:41.523Z,62.4
2023-03-17T09:59:07.095Z,62.6
2023-03-17T10:01:33.206Z,60.4
2023-03-17T10:03:59.323Z,58.9
2023-03-17T10:06:25.388Z,58.2
2023-03-17T10:08:51.491Z,59.4
2023-03-17T10:11:17.589Z,57.8
2023-03-17T10:13:43.687Z,57.5
2023-03-17T10:16:09.841Z,58.5
2023-03-17T10:18:35.898Z,58.2
2023-03-17T10:21:01.969Z,57.8
2023-03-17T10:23:27.073Z,56.2
2023-03-17T10:25:53.186Z,56.4
2023-03-17T10:28:19.277Z,56.7
2023-03-17T10:30:45.403Z,56.6
2023-03-17T10:33:22.679Z,56.4
2023-03-17T10:35:37.710Z,55.4
2023-03-17T10:38:03.744Z,55.9
2023-03-17T10:40:29.898Z,56
2023-03-17T10:42:56.121Z,55.2
2023-03-17T10:45:22.086Z,55.2
2023-03-17T10:47:48.225Z,55
2023-03-17T10:50:14.306Z,54
2023-03-17T10:52:40.443Z,54.5
2023-03-17T10:55:05.632Z,52.9
2023-03-17T10:57:31.622Z,51.8
2023-03-17T10:59:57.668Z,51.6
2023-03-17T11:02:23.825Z,51.9
2023-03-17T11:04:50.042Z,52.1
2023-03-17T11:07:16.008Z,51
2023-03-17T11:09:42.085Z,51.1
2023-03-17T11:12:08.184Z,50.9
2023-03-17T11:14:34.095Z,52.4
2023-03-17T11:17:00.379Z,51.3
2023-03-17T11:19:26.456Z,51.5
2023-03-17T11:21:52.582Z,50.9
2023-03-17T11:24:18.667Z,51.8
2023-03-17T11:26:44.908Z,52
2023-03-17T11:29:11.384Z,50.4
2023-03-17T11:31:37.005Z,51.3
2023-03-17T11:34:03.187Z,51.6
2023-03-17T11:38:55.394Z,51.2
2023-03-17T11:41:21.372Z,50.2
2023-03-17T11:43:47.531Z,49.6
2023-03-17T11:46:24.998Z,49.1
2023-03-17T11:48:39.594Z,48.8
2023-03-17T11:51:05.830Z,48.6
2023-03-17T11:53:31.887Z,48.4
2023-03-17T11:55:58.071Z,49.2
2023-03-17T11:58:25.418Z,47.8
2023-03-17T12:00:49.188Z,48.6
2023-03-17T12:03:15.319Z,48.7
2023-03-17T12:05:41.323Z,48.1
2023-03-17T12:08:07.546Z,47.5
2023-03-17T12:10:33.424Z,47.5
2023-03-17T12:12:59.762Z,47.4
2023-03-17T12:15:25.870Z,47.9
2023-03-17T12:17:51.927Z,46.2
2023-03-17T12:20:17.807Z,47.1
2023-03-17T12:22:43.898Z,46.6
2023-03-17T12:25:10.207Z,46.1
2023-03-17T12:27:36.224Z,45.8
2023-03-17T12:30:01.407Z,45.4
2023-03-17T12:32:27.382Z,44.7
2023-03-17T12:34:53.433Z,44.5
2023-03-17T12:37:19.632Z,44.8
2023-03-17T12:39:45.663Z,43.5
2023-03-17T12:42:11.681Z,42.8
2023-03-17T12:44:37.808Z,44.7
2023-03-17T12:47:03.965Z,45.6
2023-03-17T12:49:30.033Z,44.7
2023-03-17T12:51:56.236Z,43.2
2023-03-17T12:54:22.151Z,42.3
2023-03-17T12:56:48.358Z,41.7
2023-03-17T12:59:14.427Z,42.7
2023-03-17T13:01:39.504Z,42.9
2023-03-17T13:04:05.621Z,42.9
2023-03-17T13:06:31.668Z,42.9
2023-03-17T13:08:57.764Z,43.4
2023-03-17T13:11:23.958Z,41.4
2023-03-17T13:13:49.943Z,41.4
2023-03-17T13:16:16.090Z,43.1
2023-03-17T13:18:42.169Z,42.9
2023-03-17T13:21:08.220Z,43.3
2023-03-17T13:23:34.318Z,42.8
2023-03-17T13:26:00.443Z,42.4
2023-03-17T13:28:26.532Z,42.9
2023-03-17T13:30:52.618Z,41.9
2023-03-17T13:33:17.731Z,42.1
2023-03-17T13:35:43.862Z,41.2
2023-03-17T13:38:09.917Z,40.6
2023-03-17T13:40:36.135Z,41.6
2023-03-17T13:43:02.113Z,39
2023-03-17T13:45:28.207Z,40.7
2023-03-17T13:47:54.311Z,40.7
2023-03-17T13:50:20.375Z,38.7
2023-03-17T13:52:46.487Z,38.7
2023-03-17T13:55:12.562Z,38.5
2023-03-17T13:57:38.676Z,38.6
2023-03-17T14:00:04.766Z,38.3
2023-03-17T14:02:30.876Z,39.4
2023-03-17T14:04:55.974Z,38.3
2023-03-17T14:07:22.056Z,37.6
2023-03-17T14:09:48.159Z,37.7
2023-03-17T14:12:14.251Z,38.2
2023-03-17T14:14:40.338Z,39.1
2023-03-17T14:17:06.609Z,39.5
2023-03-17T14:19:32.621Z,38.6
2023-03-17T14:21:58.710Z,39
2023-03-17T14:24:24.787Z,37.9
2023-03-17T14:26:50.924Z,37.7
2023-03-17T14:29:16.971Z,38
2023-03-17T14:31:43.021Z,38.6
2023-03-17T14:34:09.185Z,38.9
2023-03-17T14:36:34.217Z,38.5
2023-03-17T14:39:00.307Z,39
2023-03-17T14:41:26.402Z,39.4
2023-03-17T14:43:52.537Z,39.3
2023-03-17T14:46:18.603Z,39.2
2023-03-17T14:48:44.760Z,40
2023-03-17T14:51:10.776Z,41
2023-03-17T14:53:36.995Z,41.1
2023-03-17T14:56:03.093Z,41.4
2023-03-17T14:58:29.078Z,41.6
2023-03-17T15:00:55.263Z,41.1
2023-03-17T15:03:21.386Z,41.6
2023-03-17T15:05:47.407Z,43
2023-03-17T15:08:12.613Z,43.2
2023-03-17T15:10:38.630Z,43.2
2023-03-17T15:13:04.705Z,42.9
2023-03-17T15:15:30.752Z,42.2
2023-03-17T15:17:56.841Z,42.9
2023-03-17T15:20:23.154Z,43.6
2023-03-17T15:22:49.063Z,42.9
2023-03-17T15:25:15.140Z,42.1
2023-03-17T15:27:41.222Z,43
2023-03-17T15:30:07.300Z,43.7
2023-03-17T15:32:33.445Z,42.7
2023-03-17T15:34:59.587Z,43.6
2023-03-17T15:37:25.604Z,43.5
2023-03-17T15:39:51.738Z,43.1
2023-03-17T15:42:18.753Z,43.6
2023-03-17T15:44:43.974Z,44.5
2023-03-17T15:47:26.512Z,45.7
2023-03-17T15:49:36.070Z,45.6
2023-03-17T16:01:45.694Z,50.5
2023-03-17T16:04:10.681Z,52
2023-03-17T16:09:01.924Z,53.4
2023-03-17T16:11:27.051Z,53.9
2023-03-17T16:13:52.208Z,53.9
2023-03-17T16:16:17.237Z,54.1
2023-03-17T16:18:42.396Z,54.9
2023-03-17T16:21:07.460Z,55.4
2023-03-17T16:23:32.649Z,56
2023-03-17T16:25:58.684Z,55
2023-03-17T16:28:24.849Z,55
2023-03-17T16:30:50.874Z,55.4
2023-03-17T16:33:16.999Z,55.3
2023-03-17T16:35:43.101Z,55.1
2023-03-17T16:38:09.210Z,54.9
2023-03-17T16:40:35.376Z,54.9
2023-03-17T16:43:01.459Z,55.3
2023-03-17T16:45:27.451Z,55.5
2023-03-17T16:47:52.593Z,56.8
2023-03-17T16:50:17.764Z,59.8
2023-03-17T16:52:43.794Z,59.6
2023-03-17T16:55:09.945Z,61
2023-03-17T16:57:35.033Z,61.5
2023-03-17T17:00:01.076Z,62.9
2023-03-17T17:02:27.182Z,63.7
2023-03-17T17:04:53.273Z,64.5
2023-03-17T17:07:19.367Z,65.9
2023-03-17T17:09:45.515Z,66
2023-03-17T17:12:11.609Z,65.7
2023-03-17T17:14:37.675Z,66.5
2023-03-17T17:17:03.761Z,66.9
2023-03-17T17:19:29.984Z,66.9
2023-03-17T17:21:56.033Z,67.8
2023-03-17T17:24:22.043Z,68.3
2023-03-17T17:26:48.161Z,68.8
2023-03-17T17:29:13.264Z,69.2
2023-03-17T17:31:39.338Z,70.2
2023-03-17T17:34:05.480Z,70.8
2023-03-17T17:36:31.646Z,71.4
2023-03-17T17:38:56.689Z,72
2023-03-17T17:41:21.829Z,72
2023-03-17T17:43:46.907Z,72.2
2023-03-17T17:46:12.037Z,72.7
2023-03-17T17:48:38.124Z,73.4
2023-03-17T17:51:04.195Z,73.3
2023-03-17T17:53:30.362Z,74
2023-03-17T17:55:56.395Z,74.8
2023-03-17T17:58:22.463Z,74.6
2023-03-17T18:00:48.548Z,75.1
2023-03-17T18:03:14.675Z,75.2
2023-03-17T18:05:40.759Z,75.9
2023-03-17T18:08:06.849Z,75.8
2023-03-17T18:10:33.119Z,75.5
2023-03-17T18:12:59.053Z,76.1
2023-03-17T18:15:25.158Z,76.2
2023-03-17T18:17:50.254Z,75.3
2023-03-17T18:20:16.352Z,72.2
2023-03-17T18:22:42.435Z,71.3
2023-03-17T18:25:08.546Z,71.8
2023-03-17T18:27:34.642Z,72.4
2023-03-17T18:30:00.735Z,73.3
2023-03-17T18:32:26.841Z,74.8
2023-03-17T18:34:51.939Z,76.2
2023-03-17T18:37:17.067Z,77
2023-03-17T18:39:42.188Z,76.2
2023-03-17T18:42:07.452Z,76.4
2023-03-17T18:44:33.418Z,76.9
2023-03-17T18:46:59.511Z,77.6
2023-03-17T18:49:25.588Z,78.1
2023-03-17T18:51:51.684Z,78
2023-03-17T18:54:17.770Z,78.6
2023-03-17T18:56:43.905Z,79.3
2023-03-17T18:59:09.965Z,79.7
2023-03-17T19:01:36.099Z,80.3
2023-03-17T19:04:02.162Z,80
2023-03-17T19:06:28.240Z,79
2023-03-17T19:08:54.404Z,79.7
2023-03-17T19:11:20.439Z,80.1
2023-03-17T19:13:45.561Z,80.4
2023-03-17T19:16:11.637Z,81
2023-03-17T19:18:37.751Z,81.2
2023-03-17T19:21:03.966Z,81.6
2023-03-17T19:23:29.930Z,81.7
2023-03-17T19:25:56.105Z,82.2
2023-03-17T19:28:22.122Z,82.3
2023-03-17T19:30:47.322Z,82.9
2023-03-17T19:33:12.394Z,83.1
2023-03-17T19:35:38.452Z,83.8
2023-03-17T19:38:04.549Z,83.8
2023-03-17T19:40:30.823Z,84.2
2023-03-17T19:42:56.772Z,84.5
2023-03-17T19:45:22.829Z,84
2023-03-17T19:47:48.999Z,83.9
2023-03-17T19:50:15.031Z,83.1
2023-03-17T19:52:41.206Z,82.2
2023-03-17T19:55:07.215Z,82
2023-03-17T19:57:33.321Z,82
2023-03-17T19:59:59.450Z,82
2023-03-17T20:02:25.541Z,82.5
2023-03-17T20:04:50.629Z,83.1
2023-03-17T20:07:16.706Z,82.8
2023-03-17T20:09:42.844Z,82.9
2023-03-17T20:12:08.900Z,83.1
2023-03-17T20:14:35.039Z,83.6
2023-03-17T20:17:01.093Z,84.2
2023-03-17T20:19:27.211Z,84.6
2023-03-17T20:21:52.337Z,85.4
2023-03-17T20:24:17.445Z,86.2
2023-03-17T20:26:42.554Z,86.4
2023-03-17T20:29:07.661Z,87
2023-03-17T20:31:33.758Z,87.5
2023-03-17T20:33:59.833Z,87.1
2023-03-17T20:36:25.954Z,87.3
2023-03-17T20:38:52.090Z,87.6
2023-03-17T20:41:18.218Z,87.9
2023-03-17T20:43:44.233Z,88.3
2023-03-17T20:46:10.331Z,88.3
2023-03-17T20:48:36.440Z,88.6
2023-03-17T20:51:02.664Z,88.5
2023-03-17T20:53:28.614Z,89.6
2023-03-17T20:55:54.708Z,89.4
2023-03-17T20:58:20.841Z,89
2023-03-17T21:00:46.906Z,88.7
2023-03-17T21:03:13.005Z,88.6
2023-03-17T21:05:39.090Z,88.6
2023-03-17T21:08:05.177Z,88.9
2023-03-17T21:10:31.485Z,88.9
2023-03-17T21:12:57.470Z,89.2
2023-03-17T21:15:23.479Z,89.4
2023-03-17T21:17:49.580Z,89.6
2023-03-17T21:20:15.727Z,89.8
2023-03-17T21:22:41.804Z,89.8
2023-03-17T21:25:06.897Z,90
2023-03-17T21:27:32.044Z,90.3
2023-03-17T21:29:58.108Z,90.4
2023-03-17T21:32:24.412Z,90.4
2023-03-17T21:34:50.308Z,90.5
2023-03-17T21:37:16.381Z,90.6
2023-03-17T21:39:42.516Z,90.6
2023-03-17T21:42:08.637Z,90.4
2023-03-17T21:44:34.727Z,90.5
2023-03-17T21:47:00.741Z,90.8
2023-03-17T21:49:26.886Z,91
2023-03-17T21:51:52.932Z,91.4
2023-03-17T21:54:19.102Z,91.6
2023-03-17T21:56:45.151Z,91.6
2023-03-17T21:59:10.250Z,91.9
2023-03-17T22:01:36.348Z,92.1
2023-03-17T22:04:02.497Z,92.1
2023-03-17T22:06:28.545Z,92.3
2023-03-17T22:08:54.639Z,92.5
2023-03-17T22:11:20.738Z,92.7
2023-03-17T22:13:46.810Z,93
2023-03-17T22:16:12.903Z,92.5
2023-03-17T22:18:39.015Z,92.6
2023-03-17T22:21:05.133Z,92.6
2023-03-17T22:23:31.206Z,92.7
2023-03-17T22:25:57.573Z,92.5
2023-03-17T22:28:23.400Z,92.4
2023-03-17T22:30:48.692Z,92.4
2023-03-17T22:33:14.693Z,92.5
2023-03-17T22:35:40.885Z,92.4
2023-03-17T22:38:06.877Z,92.3
2023-03-17T22:40:32.892Z,92.4
2023-03-17T22:42:58.995Z,92.6
2023-03-17T22:45:25.100Z,92.8
2023-03-17T22:47:51.204Z,93.1
2023-03-17T22:50:17.289Z,93.2
2023-03-17T22:52:43.427Z,93.5
2023-03-17T22:55:09.490Z,93.7
2023-03-17T22:57:34.613Z,93.7
2023-03-17T23:00:00.691Z,93.9
2023-03-17T23:02:26.926Z,94.1
2023-03-17T23:04:52.882Z,94.2
2023-03-17T23:07:18.965Z,94.2
2023-03-17T23:09:45.077Z,94.2
2023-03-17T23:12:11.169Z,94.2
2023-03-17T23:14:37.406Z,94.3
2023-03-17T23:17:03.368Z,94.4
2023-03-17T23:19:29.462Z,94.6
2023-03-17T23:21:55.548Z,94.6
2023-03-17T23:24:21.631Z,94.6
2023-03-17T23:26:46.813Z,94.7
2023-03-17T23:29:11.879Z,94.8
2023-03-17T23:31:36.993Z,94.8
2023-03-17T23:34:02.110Z,94.8
2023-03-17T23:36:27.252Z,94.5
2023-03-17T23:38:52.336Z,94.6
2023-03-17T23:41:17.499Z,94.6
2023-03-17T23:43:43.560Z,94.7
2023-03-17T23:46:09.648Z,94.6
2023-03-17T23:48:35.739Z,94.7
2023-03-17T23:51:01.942Z,95.1
2023-03-17T23:53:28.120Z,95.3
2023-03-17T23:55:54.026Z,95.5
2023-03-17T23:58:20.122Z,95.7
